Time;durP1;ratioP1;P1;durP2;ratioP2;P2;SDS_P1;SDS_P2;PMS_P1;PMS_P2;Temp;Humidity;BMP_temperature;BMP_pressure;BME280_temperature;BME280_humidity;BME280_pressure;Samples;Min_cycle;Max_cycle;Signal;HPM_P1;HPM_P2
2022/07/05 00:01:25;;;;;;;2.30;2.00;;;16.20;90.00;;;;;;5062708;28;20475;-50
2022/07/05 00:03:52;;;;;;;6.23;2.30;;;16.30;89.10;;;;;;5056247;28;20511;-50
2022/07/05 00:06:18;;;;;;;2.87;2.37;;;16.20;90.00;;;;;;5051761;28;20977;-50
2022/07/05 00:08:45;;;;;;;2.53;2.10;;;16.10;90.00;;;;;;5070167;28;20487;-50
2022/07/05 00:11:13;;;;;;;3.50;1.90;;;16.00;90.00;;;;;;5057527;28;20475;-49
2022/07/05 00:13:40;;;;;;;3.33;2.50;;;16.10;89.70;;;;;;5054277;28;20895;-50
2022/07/05 00:16:06;;;;;;;4.13;2.60;;;16.10;90.00;;;;;;5049694;28;20483;-50
2022/07/05 00:18:33;;;;;;;9.90;2.57;;;16.10;89.70;;;;;;5066534;28;20487;-50
2022/07/05 00:21:00;;;;;;;2.13;1.93;;;16.10;90.10;;;;;;5057564;28;20479;-50
2022/07/05 00:23:27;;;;;;;2.63;2.43;;;15.90;90.00;;;;;;5061392;28;20486;-50
2022/07/05 00:25:54;;;;;;;6.20;2.10;;;15.80;90.30;;;;;;5062087;28;20478;-50
2022/07/05 00:28:22;;;;;;;3.00;1.80;;;15.70;90.50;;;;;;5054304;28;20486;-50
2022/07/05 00:30:48;;;;;;;2.33;2.10;;;15.70;90.40;;;;;;5062464;28;20493;-50
2022/07/05 00:33:15;;;;;;;2.53;2.13;;;15.70;90.30;;;;;;5030629;28;20466;-49
2022/07/05 00:35:42;;;;;;;3.47;1.80;;;15.60;90.40;;;;;;5059215;28;20478;-50
2022/07/05 00:38:09;;;;;;;3.23;2.40;;;15.60;90.40;;;;;;5059081;28;20487;-50
2022/07/05 00:40:35;;;;;;;2.40;2.20;;;15.60;90.50;;;;;;5049154;28;20843;-50
2022/07/05 00:43:02;;;;;;;3.67;2.60;;;15.50;90.90;;;;;;5062297;28;20479;-50
2022/07/05 00:45:30;;;;;;;2.10;1.87;;;15.50;90.80;;;;;;5062479;28;20483;-50
2022/07/05 00:47:57;;;;;;;8.23;2.70;;;15.60;90.60;;;;;;5060693;28;20491;-51
2022/07/05 00:50:24;;;;;;;3.70;1.90;;;15.50;90.40;;;;;;5054418;28;20486;-50
2022/07/05 00:52:54;;;;;;;2.40;2.17;;;15.50;90.60;;;;;;5064232;28;20490;-51
2022/07/05 00:55:21;;;;;;;3.20;2.00;;;15.20;90.90;;;;;;5060930;28;20479;-50
2022/07/05 00:57:49;;;;;;;2.57;2.20;;;15.10;90.60;;;;;;5051658;28;20475;-50
2022/07/05 01:00:16;;;;;;;4.53;2.30;;;15.10;90.40;;;;;;5057252;28;20475;-50
2022/07/05 01:02:44;;;;;;;3.40;2.90;;;15.20;90.30;;;;;;5060507;28;20479;-50
2022/07/05 01:05:10;;;;;;;4.70;2.20;;;15.20;91.20;;;;;;5063476;28;20462;-50
2022/07/05 01:07:37;;;;;;;2.50;1.90;;;15.10;91.20;;;;;;5059588;28;20482;-50
2022/07/05 01:10:05;;;;;;;2.50;2.30;;;15.10;91.00;;;;;;5050990;28;20478;-50
2022/07/05 01:12:32;;;;;;;3.63;2.40;;;15.10;91.00;;;;;;5057239;28;20481;-50
2022/07/05 01:14:59;;;;;;;2.80;2.60;;;15.00;90.90;;;;;;5057154;28;20486;-51
2022/07/05 01:17:26;;;;;;;4.53;2.40;;;15.00;90.80;;;;;;5051649;28;20862;-50
2022/07/05 01:19:55;;;;;;;2.20;1.90;;;14.90;90.60;;;;;;5056441;28;20491;-50
2022/07/05 01:22:26;;;;;;;3.80;2.30;;;14.90;90.50;;;;;;5063024;28;20485;-49
2022/07/05 01:24:54;;;;;;;2.70;2.50;;;15.00;90.30;;;;;;5050201;28;20558;-51
2022/07/05 01:27:22;;;;;;;2.23;2.03;;;15.00;90.70;;;;;;5049622;28;20474;-50
2022/07/05 01:29:49;;;;;;;6.67;2.50;;;15.00;90.40;;;;;;5017909;28;20483;-50
2022/07/05 01:32:16;;;;;;;4.50;3.07;;;14.90;90.70;;;;;;5049882;28;20494;-49
2022/07/05 01:34:43;;;;;;;2.27;2.07;;;14.80;90.50;;;;;;5045321;28;20992;-50
2022/07/05 01:37:10;;;;;;;2.43;2.17;;;14.80;90.50;;;;;;5058455;28;20479;-51
2022/07/05 01:39:38;;;;;;;2.63;2.40;;;14.80;90.50;;;;;;5059059;28;20796;-50
2022/07/05 01:42:06;;;;;;;10.80;2.23;;;14.70;90.60;;;;;;5062921;28;20532;-51
2022/07/05 01:44:33;;;;;;;2.50;2.30;;;14.70;91.00;;;;;;5059540;28;20497;-50
2022/07/05 01:47:06;;;;;;;2.60;2.07;;;14.60;90.40;;;;;;5062441;28;20478;-50
2022/07/05 01:49:39;;;;;;;4.73;4.33;;;14.60;90.60;;;;;;5060034;28;20491;-50
2022/07/05 01:52:09;;;;;;;4.83;2.57;;;14.60;90.90;;;;;;5066391;28;20499;-50
2022/07/05 01:54:37;;;;;;;5.70;2.77;;;14.60;90.80;;;;;;5039144;28;20574;-50
2022/07/05 01:57:06;;;;;;;3.80;2.50;;;14.60;90.60;;;;;;5053558;28;20494;-50
2022/07/05 01:59:34;;;;;;;4.90;2.43;;;14.70;90.60;;;;;;5055233;28;20486;-50
2022/07/05 02:02:01;;;;;;;4.13;3.23;;;14.70;90.70;;;;;;5061858;28;20936;-49
2022/07/05 02:04:29;;;;;;;3.20;2.97;;;14.70;91.10;;;;;;5056561;28;20488;-51
2022/07/05 02:06:56;;;;;;;4.90;2.70;;;14.60;90.40;;;;;;5054577;28;20880;-51
2022/07/05 02:09:23;;;;;;;6.33;3.30;;;14.50;90.70;;;;;;5055308;28;21002;-49
2022/07/05 02:11:49;;;;;;;3.30;3.10;;;14.40;90.70;;;;;;5056348;28;20479;-50
2022/07/05 02:14:18;;;;;;;3.00;2.70;;;14.30;90.70;;;;;;5055845;28;20478;-50
2022/07/05 02:16:44;;;;;;;2.67;2.47;;;14.30;90.80;;;;;;5050574;28;21048;-49
2022/07/05 02:19:11;;;;;;;5.73;3.23;;;14.10;90.80;;;;;;5053164;28;20505;-50
2022/07/05 02:21:38;;;;;;;2.73;2.30;;;14.10;90.90;;;;;;5049280;28;20478;-50
2022/07/05 02:24:05;;;;;;;2.50;2.30;;;14.10;90.90;;;;;;5040714;28;20471;-50
2022/07/05 02:26:32;;;;;;;3.87;3.00;;;14.10;91.20;;;;;;5055759;28;21012;-49
2022/07/05 02:28:59;;;;;;;3.23;2.57;;;13.90;91.80;;;;;;5049133;28;20471;-50
2022/07/05 02:31:27;;;;;;;4.63;4.13;;;13.80;92.00;;;;;;5047098;28;20498;-50
2022/07/05 02:33:54;;;;;;;7.50;3.30;;;13.70;92.40;;;;;;5032542;28;20474;-50
2022/07/05 02:36:21;;;;;;;4.10;3.67;;;13.70;91.70;;;;;;5062344;28;20833;-50
2022/07/05 02:38:47;;;;;;;8.10;3.30;;;13.70;91.40;;;;;;5064184;28;20481;-50
2022/07/05 02:41:14;;;;;;;3.43;3.13;;;13.70;91.50;;;;;;5055153;28;21299;-51
2022/07/05 02:43:41;;;;;;;2.60;2.40;;;13.70;91.40;;;;;;5055154;28;20485;-50
2022/07/05 02:46:09;;;;;;;3.83;3.40;;;13.80;91.50;;;;;;5060590;28;20486;-50
2022/07/05 02:48:38;;;;;;;3.27;2.33;;;13.80;91.60;;;;;;5054006;28;20494;-51
2022/07/05 02:51:05;;;;;;;3.90;2.70;;;13.80;91.70;;;;;;5061912;28;20482;-50
2022/07/05 02:53:34;;;;;;;6.17;2.63;;;13.70;91.50;;;;;;5061954;28;21213;-50
2022/07/05 02:56:00;;;;;;;5.00;4.57;;;13.70;91.60;;;;;;5064286;28;20572;-50
2022/07/05 02:58:27;;;;;;;4.20;3.90;;;13.60;91.20;;;;;;5062865;28;21241;-50
2022/07/05 03:00:54;;;;;;;2.87;2.67;;;13.50;91.60;;;;;;5061091;28;20486;-50
2022/07/05 03:03:21;;;;;;;7.90;3.67;;;13.20;92.60;;;;;;5060409;28;20521;-49
2022/07/05 03:05:49;;;;;;;4.50;3.50;;;13.20;92.70;;;;;;5063127;28;20485;-50
2022/07/05 03:08:16;;;;;;;4.50;3.70;;;13.10;93.00;;;;;;5057807;28;20505;-50
2022/07/05 03:10:43;;;;;;;6.17;2.63;;;13.20;92.50;;;;;;5057500;28;20481;-50
2022/07/05 03:13:09;;;;;;;10.53;3.20;;;13.20;92.30;;;;;;5048489;28;20547;-50
2022/07/05 03:15:36;;;;;;;3.77;2.10;;;13.20;92.00;;;;;;5039314;28;20516;-51
2022/07/05 03:18:03;;;;;;;5.80;2.87;;;13.30;92.10;;;;;;5058456;28;20548;-51
2022/07/05 03:20:30;;;;;;;3.77;3.47;;;13.30;91.90;;;;;;5048227;28;20837;-51
2022/07/05 03:22:58;;;;;;;3.07;2.60;;;13.30;91.90;;;;;;5051852;28;20482;-51
2022/07/05 03:25:25;;;;;;;7.10;3.60;;;13.40;91.90;;;;;;5031650;28;20486;-51
2022/07/05 03:27:51;;;;;;;5.23;2.90;;;13.40;91.70;;;;;;5062560;28;20500;-52
2022/07/05 03:30:18;;;;;;;2.63;2.17;;;13.40;91.60;;;;;;5059954;28;20487;-51
2022/07/05 03:32:45;;;;;;;2.43;2.23;;;13.30;92.00;;;;;;5054236;28;20486;-51
2022/07/05 03:35:11;;;;;;;3.07;2.77;;;13.20;92.40;;;;;;5049442;28;20480;-51
2022/07/05 03:37:38;;;;;;;2.70;2.50;;;13.20;92.30;;;;;;5055274;28;20486;-51
2022/07/05 03:40:08;;;;;;;4.20;2.40;;;13.10;92.30;;;;;;5042389;28;20867;-50
2022/07/05 03:42:35;;;;;;;2.90;2.10;;;13.00;92.30;;;;;;5061172;28;20496;-50
2022/07/05 03:45:01;;;;;;;2.23;2.03;;;13.00;92.30;;;;;;5058567;28;20482;-51
2022/07/05 03:47:28;;;;;;;2.57;2.37;;;13.00;92.20;;;;;;5059163;28;20493;-51
2022/07/05 03:49:55;;;;;;;2.60;2.40;;;13.00;92.30;;;;;;5060443;28;21292;-51
2022/07/05 03:52:22;;;;;;;4.00;2.40;;;13.10;91.90;;;;;;5063286;28;20482;-52
2022/07/05 03:54:48;;;;;;;5.47;2.53;;;13.10;91.80;;;;;;5062117;28;20500;-51
2022/07/05 03:57:16;;;;;;;3.57;2.63;;;13.10;91.80;;;;;;5058823;28;20478;-55
2022/07/05 03:59:44;;;;;;;2.90;2.70;;;13.10;91.80;;;;;;5060749;28;20484;-52
2022/07/05 04:02:11;;;;;;;2.93;2.63;;;13.10;92.10;;;;;;5063355;28;20486;-51
2022/07/05 04:04:38;;;;;;;3.37;2.47;;;13.10;92.30;;;;;;5038390;28;20465;-50
2022/07/05 04:07:05;;;;;;;3.07;2.77;;;13.20;92.50;;;;;;5064636;28;21018;-51
2022/07/05 04:09:31;;;;;;;4.77;2.57;;;13.20;92.60;;;;;;5060452;28;20493;-51
2022/07/05 04:11:58;;;;;;;4.80;2.40;;;13.20;92.50;;;;;;5060034;28;21075;-51
2022/07/05 04:14:26;;;;;;;3.33;2.67;;;13.30;92.50;;;;;;5060607;28;20881;-51
2022/07/05 04:16:53;;;;;;;3.20;2.30;;;13.30;92.00;;;;;;5060822;28;20482;-50
2022/07/05 04:19:19;;;;;;;12.77;3.00;;;13.40;92.00;;;;;;5058033;28;21092;-51
2022/07/05 04:21:46;;;;;;;2.23;1.90;;;13.40;91.80;;;;;;5049070;28;20474;-51
2022/07/05 04:24:13;;;;;;;2.87;2.40;;;13.40;92.00;;;;;;5032957;28;21026;-51
2022/07/05 04:26:40;;;;;;;2.47;2.27;;;13.40;91.90;;;;;;5057592;28;20482;-50
2022/07/05 04:29:06;;;;;;;2.97;2.27;;;13.40;92.00;;;;;;5060133;28;20496;-50
2022/07/05 04:31:35;;;;;;;9.00;2.77;;;13.40;92.00;;;;;;5059899;28;20479;-50
2022/07/05 04:34:01;;;;;;;2.57;2.13;;;13.40;92.30;;;;;;5061597;28;20518;-50
2022/07/05 04:36:28;;;;;;;2.60;2.40;;;13.40;92.20;;;;;;5055604;28;20485;-50
2022/07/05 04:38:55;;;;;;;5.70;2.67;;;13.30;93.00;;;;;;5063275;28;20500;-50
2022/07/05 04:41:22;;;;;;;3.47;2.60;;;13.20;93.80;;;;;;5059644;28;20485;-51
2022/07/05 04:43:48;;;;;;;5.67;2.60;;;13.10;94.50;;;;;;5060546;28;20481;-52
2022/07/05 04:46:16;;;;;;;3.20;2.90;;;13.10;94.70;;;;;;5058650;28;20485;-50
2022/07/05 04:48:45;;;;;;;3.40;3.10;;;13.20;94.70;;;;;;5059576;28;20473;-50
2022/07/05 04:51:11;;;;;;;2.53;2.33;;;13.20;94.70;;;;;;5054251;28;20486;-49
2022/07/05 04:53:38;;;;;;;3.00;2.70;;;13.10;95.10;;;;;;5056361;28;20504;-50
2022/07/05 04:56:06;;;;;;;2.70;2.50;;;13.10;95.40;;;;;;5056167;28;20902;-50
2022/07/05 04:58:32;;;;;;;5.30;3.13;;;13.10;95.70;;;;;;5061047;28;21048;-50
2022/07/05 05:00:59;;;;;;;3.73;2.90;;;13.10;96.10;;;;;;5060455;28;20477;-50
2022/07/05 05:03:26;;;;;;;4.50;3.13;;;13.30;96.50;;;;;;5060763;28;20496;-51
2022/07/05 05:05:54;;;;;;;14.33;3.20;;;13.40;96.50;;;;;;5056706;28;20497;-51
2022/07/05 05:08:21;;;;;;;4.13;3.20;;;13.70;96.50;;;;;;5060041;28;20484;-50
2022/07/05 05:10:47;;;;;;;7.03;3.10;;;13.70;96.50;;;;;;5061793;28;20475;-51
2022/07/05 05:13:14;;;;;;;4.13;3.77;;;13.80;96.40;;;;;;5059052;28;20490;-50
2022/07/05 05:15:41;;;;;;;5.17;3.77;;;14.00;96.70;;;;;;5054340;28;20484;-50
2022/07/05 05:18:08;;;;;;;3.47;3.17;;;14.10;96.80;;;;;;5058725;28;20509;-50
2022/07/05 05:20:34;;;;;;;6.30;4.03;;;14.10;96.80;;;;;;5059186;28;20490;-50
2022/07/05 05:23:02;;;;;;;4.17;3.30;;;14.30;97.40;;;;;;5057406;28;21163;-49
2022/07/05 05:25:30;;;;;;;3.90;3.60;;;14.30;97.60;;;;;;5054128;28;20709;-50
2022/07/05 05:27:57;;;;;;;5.37;4.03;;;14.40;97.30;;;;;;5057609;28;20491;-54
2022/07/05 05:30:24;;;;;;;4.50;4.20;;;14.70;97.40;;;;;;5062311;28;20494;-50
2022/07/05 05:32:51;;;;;;;4.43;3.90;;;14.80;97.00;;;;;;5059029;28;20486;-52
2022/07/05 05:35:20;;;;;;;4.10;3.80;;;14.90;97.50;;;;;;5055514;28;20487;-50
2022/07/05 05:37:49;;;;;;;4.60;4.20;;;15.00;97.10;;;;;;5064264;28;20471;-51
2022/07/05 05:40:17;;;;;;;6.10;4.10;;;15.30;96.70;;;;;;5059761;28;20486;-51
2022/07/05 05:42:44;;;;;;;3.60;3.30;;;15.40;95.90;;;;;;5061142;28;20520;-50
2022/07/05 05:45:11;;;;;;;5.60;3.57;;;15.50;95.90;;;;;;5063547;28;20478;-50
2022/07/05 05:47:49;;;;;;;3.40;3.10;;;15.50;96.10;;;;;;5057068;28;21083;-51
2022/07/05 05:50:19;;;;;;;5.77;4.00;;;15.80;95.70;;;;;;5055182;28;20490;-51
2022/07/05 05:52:46;;;;;;;3.27;3.00;;;15.80;95.90;;;;;;5054419;28;20991;-50
2022/07/05 05:55:13;;;;;;;6.20;3.87;;;16.10;95.30;;;;;;5058571;28;20482;-51
2022/07/05 05:57:41;;;;;;;6.23;3.50;;;16.30;95.70;;;;;;5048019;28;20487;-51
2022/07/05 06:00:09;;;;;;;6.30;3.50;;;16.40;95.80;;;;;;5055978;28;20478;-50
2022/07/05 06:02:36;;;;;;;3.90;3.47;;;16.50;95.80;;;;;;5056841;28;20559;-51
2022/07/05 06:05:03;;;;;;;5.60;2.93;;;16.70;95.90;;;;;;5062033;28;21010;-51
2022/07/05 06:07:30;;;;;;;4.10;3.80;;;16.90;95.60;;;;;;5058267;28;20486;-51
2022/07/05 06:09:57;;;;;;;3.80;2.80;;;17.00;94.60;;;;;;5058926;28;20872;-54
2022/07/05 06:12:24;;;;;;;4.40;3.37;;;17.20;92.90;;;;;;5063314;28;20482;-51
2022/07/05 06:14:52;;;;;;;3.73;3.00;;;17.40;93.70;;;;;;5059835;28;20475;-51
2022/07/05 06:17:18;;;;;;;4.60;3.13;;;17.60;93.30;;;;;;5055448;28;20498;-52
2022/07/05 06:19:45;;;;;;;4.00;2.87;;;17.90;92.30;;;;;;5057681;28;20482;-51
2022/07/05 06:22:11;;;;;;;2.73;2.53;;;18.10;91.30;;;;;;5053647;28;20483;-51
2022/07/05 06:24:38;;;;;;;3.90;3.00;;;18.20;91.30;;;;;;5058552;28;20486;-52
2022/07/05 06:27:05;;;;;;;2.77;2.47;;;18.30;92.20;;;;;;5058364;28;20475;-51
2022/07/05 06:29:32;;;;;;;3.03;2.37;;;18.60;91.60;;;;;;5057557;28;20486;-52
2022/07/05 06:32:00;;;;;;;4.03;2.50;;;18.60;91.20;;;;;;5032185;28;20517;-51
2022/07/05 06:34:27;;;;;;;10.23;2.90;;;19.00;91.30;;;;;;5061251;28;20540;-51
2022/07/05 06:36:54;;;;;;;3.77;3.07;;;19.10;90.80;;;;;;5058047;28;20483;-51
2022/07/05 06:39:20;;;;;;;4.53;3.30;;;19.20;91.30;;;;;;5047739;28;20486;-51
2022/07/05 06:41:47;;;;;;;2.97;2.30;;;19.50;91.10;;;;;;5046297;28;20475;-51
2022/07/05 06:44:14;;;;;;;6.00;3.20;;;19.80;90.60;;;;;;5057212;28;20486;-51
2022/07/05 06:46:41;;;;;;;4.60;2.57;;;19.90;90.80;;;;;;5057460;28;20494;-51
2022/07/05 06:49:09;;;;;;;2.43;2.23;;;20.40;88.20;;;;;;5055745;28;20964;-51
2022/07/05 06:51:35;;;;;;;5.53;2.50;;;20.60;87.60;;;;;;5058043;28;20974;-52
2022/07/05 06:54:03;;;;;;;2.80;2.47;;;20.80;87.10;;;;;;5040908;28;20499;-51
2022/07/05 06:56:29;;;;;;;2.63;2.43;;;21.00;87.60;;;;;;5057928;28;20488;-51
2022/07/05 06:58:56;;;;;;;6.13;2.57;;;21.10;88.70;;;;;;5059403;28;20534;-52
2022/07/05 07:01:23;;;;;;;3.43;2.67;;;21.40;86.00;;;;;;5060095;28;20481;-51
2022/07/05 07:03:50;;;;;;;4.67;2.63;;;21.80;85.30;;;;;;5059462;28;20499;-51
2022/07/05 07:06:18;;;;;;;2.97;2.57;;;22.10;85.00;;;;;;5048032;28;20486;-51
2022/07/05 07:11:30;;;;;;;4.07;2.67;;;22.40;83.20;;;;;;5038995;28;20497;-51
2022/07/05 07:13:56;;;;;;;8.50;2.70;;;22.60;83.40;;;;;;5053121;28;20832;-51
2022/07/05 07:16:23;;;;;;;7.20;2.03;;;22.80;84.20;;;;;;5040673;28;20984;-52
2022/07/05 07:18:50;;;;;;;3.37;2.47;;;23.10;81.90;;;;;;5057031;28;20488;-52
2022/07/05 07:21:18;;;;;;;2.77;2.30;;;23.40;80.90;;;;;;5058819;28;20478;-52
2022/07/05 07:23:45;;;;;;;3.27;2.40;;;23.70;80.10;;;;;;5067652;28;20470;-52
2022/07/05 07:26:13;;;;;;;2.50;2.27;;;23.70;77.50;;;;;;5061683;28;20505;-52
2022/07/05 07:28:43;;;;;;;4.60;2.07;;;24.00;78.40;;;;;;5062724;28;20466;-52
2022/07/05 07:31:13;;;;;;;9.80;2.70;;;24.30;79.40;;;;;;5054934;28;20844;-52
2022/07/05 07:33:43;;;;;;;2.73;2.10;;;24.60;77.30;;;;;;5056142;28;20470;-53
2022/07/05 07:36:10;;;;;;;3.80;2.53;;;24.70;78.10;;;;;;5045371;28;20485;-53
2022/07/05 07:38:38;;;;;;;8.13;2.40;;;25.00;76.60;;;;;;5059462;28;20963;-52
2022/07/05 07:41:04;;;;;;;3.60;1.57;;;25.20;76.30;;;;;;5065060;28;20486;-52
2022/07/05 07:43:31;;;;;;;5.83;1.90;;;25.40;75.60;;;;;;5065893;28;20474;-52
2022/07/05 07:45:58;;;;;;;5.53;2.20;;;25.60;73.90;;;;;;5061551;28;20507;-52
2022/07/05 07:48:24;;;;;;;3.60;1.97;;;25.70;74.70;;;;;;5059767;28;20705;-52
2022/07/05 07:50:51;;;;;;;4.53;2.10;;;25.90;74.00;;;;;;5066539;28;20477;-52
2022/07/05 07:53:18;;;;;;;19.87;2.50;;;26.10;74.80;;;;;;5064222;28;20478;-52
2022/07/05 07:55:46;;;;;;;2.60;1.90;;;26.20;72.70;;;;;;5061434;28;20742;-52
2022/07/05 07:58:12;;;;;;;3.13;2.00;;;26.20;72.00;;;;;;5062441;28;20486;-53
2022/07/05 08:00:39;;;;;;;5.33;1.80;;;26.40;72.30;;;;;;5065017;28;20482;-52
2022/07/05 08:03:06;;;;;;;2.73;2.03;;;26.30;69.50;;;;;;5062558;28;20615;-51
2022/07/05 08:05:32;;;;;;;2.40;1.77;;;26.30;71.40;;;;;;5065739;28;20974;-52
2022/07/05 08:07:59;;;;;;;4.37;1.97;;;26.60;70.80;;;;;;5063406;28;20475;-52
2022/07/05 08:10:26;;;;;;;2.83;1.77;;;26.70;70.90;;;;;;5066252;28;20482;-51
2022/07/05 08:12:54;;;;;;;4.93;1.70;;;27.00;69.80;;;;;;5065376;28;20493;-53
2022/07/05 08:15:21;;;;;;;8.43;1.90;;;27.20;67.30;;;;;;5052056;28;20474;-53
2022/07/05 08:23:13;;;;;;;8.10;1.90;;;27.80;68.50;;;;;;5036263;28;20899;-52
2022/07/05 08:25:39;;;;;;;5.00;1.33;;;28.00;67.90;;;;;;5033835;28;20889;-53
2022/07/05 08:28:07;;;;;;;3.40;1.73;;;28.10;63.10;;;;;;5058526;28;20569;-54
2022/07/05 08:30:34;;;;;;;1.90;1.30;;;28.10;64.10;;;;;;5060489;28;20481;-52
2022/07/05 08:33:01;;;;;;;3.07;1.33;;;28.20;63.50;;;;;;5061919;28;20481;-54
2022/07/05 08:35:27;;;;;;;4.93;1.50;;;28.20;63.30;;;;;;5063145;28;20495;-54
2022/07/05 08:37:54;;;;;;;3.07;1.70;;;28.30;64.60;;;;;;5065028;28;20485;-52
2022/07/05 08:40:26;;;;;;;4.07;1.70;;;28.20;62.10;;;;;;5061442;28;20457;-53
2022/07/05 08:42:54;;;;;;;2.23;1.37;;;28.20;64.30;;;;;;5064696;28;20509;-53
2022/07/05 08:45:24;;;;;;;2.30;1.40;;;28.40;62.50;;;;;;5066050;28;20475;-53
2022/07/05 08:47:52;;;;;;;2.37;1.50;;;28.40;60.50;;;;;;5062731;28;20997;-53
2022/07/05 08:50:20;;;;;;;3.37;2.30;;;28.30;64.70;;;;;;5053869;28;20486;-56
2022/07/05 08:52:46;;;;;;;2.30;1.60;;;28.40;63.90;;;;;;5051993;28;20951;-53
2022/07/05 08:55:14;;;;;;;3.20;1.50;;;28.40;63.20;;;;;;5058560;28;20486;-52
2022/07/05 08:57:41;;;;;;;4.10;2.17;;;28.50;64.00;;;;;;5038193;28;20482;-53
2022/07/05 09:00:09;;;;;;;3.33;1.83;;;28.50;64.00;;;;;;5054920;28;20950;-53
2022/07/05 09:02:37;;;;;;;3.53;1.60;;;28.70;64.30;;;;;;5055711;28;20828;-53
2022/07/05 09:05:05;;;;;;;2.20;1.60;;;28.80;64.30;;;;;;5063011;28;21818;-54
2022/07/05 09:07:33;;;;;;;8.70;1.70;;;28.80;65.30;;;;;;5057222;28;20913;-53
2022/07/05 09:10:02;;;;;;;3.23;1.60;;;28.90;64.40;;;;;;5063920;28;20474;-53
2022/07/05 09:12:29;;;;;;;2.30;1.60;;;29.20;63.90;;;;;;5050732;28;20490;-53
2022/07/05 09:14:56;;;;;;;2.47;1.43;;;29.30;64.20;;;;;;5062002;28;20453;-54
2022/07/05 09:17:26;;;;;;;5.60;3.30;;;29.30;59.60;;;;;;5058789;28;20578;-52
2022/07/05 09:20:08;;;;;;;3.27;1.50;;;29.20;62.00;;;;;;5061456;28;20481;-53
2022/07/05 09:22:43;;;;;;;3.10;1.13;;;29.30;62.70;;;;;;5062674;28;20935;-53
2022/07/05 09:25:18;;;;;;;2.60;1.50;;;29.60;64.50;;;;;;5061913;28;20485;-53
2022/07/05 09:27:53;;;;;;;2.93;1.40;;;29.70;58.90;;;;;;5034089;28;20938;-52
2022/07/05 09:30:32;;;;;;;3.27;1.50;;;29.50;59.90;;;;;;5061929;28;21364;-55
2022/07/05 09:33:07;;;;;;;3.10;1.53;;;29.40;61.00;;;;;;5063239;28;20444;-53
2022/07/05 09:35:37;;;;;;;6.90;2.73;;;29.30;59.30;;;;;;5061126;28;20743;-52
2022/07/05 09:38:04;;;;;;;2.83;1.60;;;29.10;57.80;;;;;;5056339;28;20481;-53
2022/07/05 09:40:31;;;;;;;3.47;1.93;;;29.00;61.00;;;;;;5062956;28;20915;-53
2022/07/05 09:43:12;;;;;;;2.40;1.23;;;29.10;60.30;;;;;;5061688;28;20500;-52
2022/07/05 09:45:39;;;;;;;3.83;1.20;;;28.90;59.40;;;;;;5062354;28;20482;-53
2022/07/05 09:48:07;;;;;;;3.83;1.60;;;28.80;61.00;;;;;;5054836;28;20487;-53
2022/07/05 09:50:36;;;;;;;2.33;1.50;;;28.00;58.40;;;;;;5059670;28;21032;-52
2022/07/05 09:53:04;;;;;;;3.40;1.50;;;27.50;60.40;;;;;;5054690;28;20453;-52
2022/07/05 09:55:31;;;;;;;3.17;1.57;;;27.50;62.40;;;;;;5062530;28;21082;-52
2022/07/05 09:57:57;;;;;;;3.13;1.93;;;27.60;60.50;;;;;;5056523;28;20482;-52
2022/07/05 10:00:24;;;;;;;4.27;1.57;;;27.70;63.10;;;;;;5061786;28;20481;-51
2022/07/05 10:02:53;;;;;;;4.23;1.53;;;28.00;63.10;;;;;;5048203;28;20482;-52
2022/07/05 10:05:21;;;;;;;1.80;1.20;;;;;;;;;;5056878;28;21057;-53
2022/07/05 10:07:51;;;;;;;3.80;1.70;;;28.60;61.70;;;;;;5056167;28;20483;-53
2022/07/05 10:10:19;;;;;;;10.23;2.10;;;29.00;62.50;;;;;;5034509;28;21009;-52
2022/07/05 10:12:49;;;;;;;7.00;1.60;;;29.00;57.70;;;;;;5062772;28;21300;-51
2022/07/05 10:15:18;;;;;;;2.80;1.40;;;28.90;57.10;;;;;;5061974;28;20775;-51
2022/07/05 10:17:47;;;;;;;3.70;1.50;;;28.80;56.70;;;;;;5056716;28;20470;-51
2022/07/05 10:20:19;;;;;;;2.93;1.77;;;28.60;56.40;;;;;;5060924;28;20818;-52
2022/07/05 10:22:48;;;;;;;2.63;1.40;;;28.20;55.80;;;;;;5057110;28;21310;-52
2022/07/05 10:25:15;;;;;;;4.03;1.87;;;28.20;57.10;;;;;;5055008;28;20942;-51
2022/07/05 10:27:44;;;;;;;3.77;1.77;;;28.20;58.60;;;;;;5056219;28;20452;-53
2022/07/05 10:30:12;;;;;;;2.90;1.87;;;28.50;59.00;;;;;;5058900;28;21063;-52
2022/07/05 10:32:40;;;;;;;3.87;1.67;;;28.90;62.10;;;;;;5059438;28;20478;-52
2022/07/05 10:35:08;;;;;;;2.43;1.80;;;29.20;59.90;;;;;;5061830;28;20845;-52
2022/07/05 10:37:36;;;;;;;2.50;1.73;;;29.20;56.70;;;;;;5059520;28;20477;-50
2022/07/05 10:40:06;;;;;;;2.40;1.57;;;29.20;56.30;;;;;;5043503;28;20467;-51
2022/07/05 10:42:38;;;;;;;4.63;2.17;;;29.00;54.90;;;;;;5061240;28;20482;-52
2022/07/05 10:45:26;;;;;;;2.70;2.00;;;28.70;55.30;;;;;;5055771;28;20477;-51
2022/07/05 10:48:18;;;;;;;3.10;1.57;;;28.70;59.10;;;;;;5027613;28;20863;-53
2022/07/05 10:50:51;;;;;;;4.23;2.07;;;28.80;58.90;;;;;;5032160;28;20450;-51
2022/07/05 10:53:20;;;;;;;3.50;1.50;;;28.90;56.70;;;;;;5053632;28;20490;-51
2022/07/05 10:55:57;;;;;;;7.90;3.10;;;29.00;57.40;;;;;;5053398;28;20557;-51
2022/07/05 10:58:29;;;;;;;4.00;2.20;;;29.10;56.60;;;;;;5026442;28;20450;-52
2022/07/05 11:01:45;;;;;;;2.63;2.20;;;28.80;56.40;;;;;;5046429;28;21131;-55
2022/07/05 11:04:22;;;;;;;2.60;1.40;;;28.90;58.60;;;;;;5061540;28;20802;-49
2022/07/05 11:06:49;;;;;;;2.87;1.80;;;28.60;55.20;;;;;;5059580;28;20485;-50
2022/07/05 11:09:20;;;;;;;2.20;1.37;;;29.00;56.00;;;;;;5057145;28;20460;-51
2022/07/05 11:12:09;;;;;;;2.83;1.53;;;29.40;57.10;;;;;;5039049;28;21143;-51
2022/07/05 11:14:47;;;;;;;2.10;1.70;;;29.60;55.00;;;;;;5042811;28;20483;-51
2022/07/05 11:17:25;;;;;;;4.57;2.20;;;29.70;54.10;;;;;;5038850;28;20484;-50
2022/07/05 11:20:13;;;;;;;2.70;1.87;;;29.70;51.80;;;;;;5062972;28;20453;-51
2022/07/05 11:22:42;;;;;;;2.97;1.63;;;29.90;54.20;;;;;;5054602;28;20509;-51
2022/07/05 11:25:11;;;;;;;2.10;1.50;;;29.90;51.40;;;;;;5062373;28;20455;-51
2022/07/05 11:28:08;;;;;;;2.57;1.53;;;30.10;53.70;;;;;;5053156;28;20585;-52
2022/07/05 11:30:59;;;;;;;4.20;1.67;;;29.90;53.10;;;;;;5058059;28;20452;-52
2022/07/05 11:33:42;;;;;;;4.63;1.53;;;29.70;52.90;;;;;;5065126;28;20477;-51
2022/07/05 11:36:22;;;;;;;6.47;1.77;;;29.60;52.50;;;;;;5059147;28;20514;-52
2022/07/05 11:39:09;;;;;;;2.87;1.70;;;29.70;53.60;;;;;;5063869;28;20860;-52
2022/07/05 11:41:38;;;;;;;3.53;1.60;;;29.80;54.40;;;;;;5061364;28;20474;-52
2022/07/05 11:44:07;;;;;;;2.87;1.83;;;29.80;52.90;;;;;;5063279;28;20509;-52
2022/07/05 11:46:34;;;;;;;2.93;1.73;;;30.00;55.70;;;;;;5048126;28;20531;-52
2022/07/05 11:49:01;;;;;;;3.20;1.83;;;30.00;55.80;;;;;;5055332;28;20481;-53
2022/07/05 11:51:28;;;;;;;3.30;1.97;;;30.10;53.20;;;;;;5038640;28;20913;-52
2022/07/05 11:53:54;;;;;;;2.33;1.50;;;30.10;53.50;;;;;;5066461;28;20489;-51
2022/07/05 11:56:21;;;;;;;2.20;1.73;;;30.10;53.50;;;;;;5058190;28;20494;-51
2022/07/05 11:58:48;;;;;;;3.83;1.63;;;30.10;54.30;;;;;;5066409;28;20464;-50
2022/07/05 12:01:16;;;;;;;2.93;1.43;;;30.30;56.80;;;;;;5066493;28;20482;-51
2022/07/05 12:03:55;;;;;;;2.27;1.60;;;30.60;55.00;;;;;;5063919;28;20463;-51
2022/07/05 12:06:23;;;;;;;3.17;1.57;;;30.80;54.40;;;;;;5055580;28;20453;-51
2022/07/05 12:09:02;;;;;;;3.07;1.60;;;30.50;51.90;;;;;;5059923;28;20473;-51
2022/07/05 12:14:20;;;;;;;4.73;1.10;;;30.40;52.40;;;;;;5065986;28;20463;-52
2022/07/05 12:16:49;;;;;;;2.90;1.43;;;30.40;52.10;;;;;;5063766;28;20464;-51
2022/07/05 12:19:26;;;;;;;2.87;1.10;;;30.60;50.70;;;;;;5065491;28;20548;-51
2022/07/05 12:21:54;;;;;;;4.40;1.57;;;30.60;51.30;;;;;;5062580;28;20680;-52
2022/07/05 12:24:21;;;;;;;2.63;1.80;;;30.70;49.50;;;;;;5061314;28;20514;-51
2022/07/05 12:26:50;;;;;;;2.27;1.80;;;30.70;50.70;;;;;;5034698;28;20457;-52
2022/07/05 12:29:18;;;;;;;2.40;1.70;;;31.10;53.50;;;;;;5055755;28;20473;-52
2022/07/05 12:32:01;;;;;;;4.27;2.17;;;31.10;52.60;;;;;;5065287;28;20479;-52
2022/07/05 12:34:28;;;;;;;2.57;1.40;;;31.10;52.00;;;;;;5048672;28;20516;-51
2022/07/05 12:36:54;;;;;;;2.60;1.77;;;31.00;53.30;;;;;;5054538;28;20445;-52
2022/07/05 12:39:21;;;;;;;2.10;1.40;;;31.00;51.90;;;;;;5063726;28;20487;-51
2022/07/05 12:41:48;;;;;;;2.83;1.40;;;;;;;;;;5059201;28;20474;-51
2022/07/05 12:44:19;;;;;;;6.77;1.43;;;31.10;50.70;;;;;;5053921;28;20457;-52
2022/07/05 12:46:46;;;;;;;3.20;1.20;;;31.10;51.50;;;;;;5062184;28;20462;-54
2022/07/05 12:49:14;;;;;;;3.67;1.10;;;30.80;50.90;;;;;;5062937;28;20489;-51
2022/07/05 12:51:42;;;;;;;4.50;1.47;;;30.70;50.70;;;;;;5060265;28;20482;-52
2022/07/05 12:59:58;;;;;;;9.37;1.77;;;30.40;48.10;;;;;;5061348;28;20509;-52
2022/07/05 13:02:34;;;;;;;2.33;1.23;;;30.40;47.90;;;;;;5061842;28;21047;-52
2022/07/05 13:05:02;;;;;;;2.17;1.60;;;30.10;50.20;;;;;;5058973;28;20854;-51
2022/07/05 13:07:29;;;;;;;2.97;1.30;;;30.00;49.10;;;;;;5061316;28;20453;-52
2022/07/05 13:09:56;;;;;;;1.97;1.20;;;29.80;50.20;;;;;;5063472;28;20476;-51
2022/07/05 13:12:23;;;;;;;2.43;1.53;;;29.90;51.20;;;;;;5059170;28;20456;-51